Time;durP1;ratioP1;P1;durP2;ratioP2;P2;SDS_P1;SDS_P2;PMS_P1;PMS_P2;Temp;Humidity;BMP_temperature;BMP_pressure;BME280_temperature;BME280_humidity;BME280_pressure;Samples;Min_cycle;Max_cycle;Signal;HPM_P1;HPM_P2
2022/06/19 00:02:02;;;;;;;3.27;2.45;;;;;;;23.95;59.36;99936.44;2811611;84;21039;-83
2022/06/19 00:06:05;;;;;;;14.18;3.05;;;;;;;23.92;59.56;99935.53;2820401;84;21239;-83
2022/06/19 00:10:08;;;;;;;2.85;2.10;;;;;;;23.89;59.79;99934.63;2819898;84;21015;-84
2022/06/19 00:14:09;;;;;;;2.72;1.98;;;;;;;23.88;59.86;99928.89;2732729;85;21543;-84
2022/06/19 00:18:11;;;;;;;4.33;3.15;;;;;;;23.88;59.96;99931.61;2744674;85;21018;-84
2022/06/19 00:22:12;;;;;;;8.10;2.47;;;;;;;23.86;60.10;99925.03;2831630;84;20984;-84
2022/06/19 00:26:14;;;;;;;3.77;2.45;;;;;;;23.87;60.27;99925.87;2804260;83;21024;-84
2022/06/19 00:30:16;;;;;;;3.65;2.40;;;;;;;23.86;60.33;99922.31;2774571;85;21039;-83
2022/06/19 00:34:17;;;;;;;4.00;2.60;;;;;;;23.88;60.82;99922.11;2769379;85;21044;-84
2022/06/19 00:38:18;;;;;;;7.37;2.65;;;;;;;23.89;60.93;99921.05;2733732;85;21045;-84
2022/06/19 00:42:19;;;;;;;2.72;2.42;;;;;;;23.91;60.96;99922.50;2742373;85;21055;-84
2022/06/19 00:46:47;;;;;;;5.05;3.42;;;;;;;23.91;61.37;99916.22;2764955;85;21075;-83
2022/06/19 00:50:51;;;;;;;3.08;2.62;;;;;;;23.90;61.67;99921.35;2753127;85;21616;-83
2022/06/19 00:55:04;;;;;;;4.33;2.85;;;;;;;23.91;61.79;99921.14;2776527;85;21056;-83
2022/06/19 00:59:06;;;;;;;3.62;1.82;;;;;;;23.91;62.36;99916.22;2780832;84;21051;-83
2022/06/19 01:03:31;;;;;;;5.97;2.75;;;;;;;23.91;62.25;99916.22;2759106;85;21024;-82
2022/06/19 01:07:32;;;;;;;5.17;3.50;;;;;;;23.91;62.27;99910.79;2760044;84;21035;-83
2022/06/19 01:11:38;;;;;;;3.70;2.85;;;;;;;23.93;62.70;99909.52;2779434;84;20998;-83
2022/06/19 01:15:39;;;;;;;5.22;2.70;;;;;;;23.97;62.81;99908.53;2775625;85;21068;-84
2022/06/19 01:19:43;;;;;;;5.80;2.85;;;;;;;23.99;62.89;99904.24;2717998;86;21612;-83
2022/06/19 01:24:16;;;;;;;4.65;2.62;;;;;;;24.01;63.04;99903.48;2704040;85;21353;-83
2022/06/19 01:32:48;;;;;;;8.38;3.40;;;;;;;24.00;63.30;99904.03;2769209;84;21064;-84
2022/06/19 01:37:02;;;;;;;6.90;3.37;;;;;;;24.00;63.28;99902.67;2735297;87;21016;-84
2022/06/19 01:41:14;;;;;;;4.10;3.27;;;;;;;23.98;63.62;99896.64;2726607;86;21073;-84
2022/06/19 01:45:16;;;;;;;6.85;2.92;;;;;;;23.99;63.63;99896.09;2745898;85;21016;-84
2022/06/19 01:49:17;;;;;;;5.37;2.90;;;;;;;23.97;63.66;99894.95;2765870;85;21025;-84
2022/06/19 01:53:33;;;;;;;3.95;2.90;;;;;;;23.94;63.75;99888.61;2700841;85;21008;-84
2022/06/19 01:57:39;;;;;;;3.65;3.35;;;;;;;23.93;63.83;99877.45;2770493;85;21039;-83
2022/06/19 02:01:40;;;;;;;10.88;3.35;;;;;;;23.91;63.99;99883.63;2749015;84;21563;-83
2022/06/19 02:05:42;;;;;;;4.08;2.70;;;;;;;23.88;64.15;99883.57;2763437;84;21064;-83
2022/06/19 02:09:45;;;;;;;4.03;3.62;;;;;;;23.84;64.24;99876.09;2781070;85;21052;-83
2022/06/19 02:13:48;;;;;;;4.00;3.60;;;;;;;23.79;64.29;99871.32;2698833;86;21533;-83
2022/06/19 02:17:53;;;;;;;5.37;3.65;;;;;;;23.75;64.61;99865.50;2660340;87;21609;-83
2022/06/19 02:21:55;;;;;;;6.25;3.17;;;;;;;23.72;64.56;99861.88;2750828;84;21040;-84
2022/06/19 02:25:57;;;;;;;4.12;3.05;;;;;;;23.72;64.67;99861.88;2764722;85;21360;-83
2022/06/19 02:29:59;;;;;;;4.75;2.85;;;;;;;23.68;64.69;99853.37;2780958;85;21054;-84
2022/06/19 02:34:06;;;;;;;3.45;2.95;;;;;;;23.66;64.82;99851.92;2782765;84;21716;-85
2022/06/19 02:38:08;;;;;;;2.50;2.30;;;;;;;23.62;64.83;99846.64;2738364;85;21090;-85
2022/06/19 02:42:24;;;;;;;6.45;3.15;;;;;;;23.58;65.06;99849.47;2814466;84;21094;-84
2022/06/19 02:46:25;;;;;;;3.70;2.58;;;;;;;23.55;65.00;99842.63;2806914;84;21047;-85
2022/06/19 02:50:32;;;;;;;4.62;3.05;;;;;;;23.53;65.17;99847.45;2781979;84;21060;-84
2022/06/19 02:54:34;;;;;;;9.38;3.87;;;;;;;23.49;65.19;99847.05;2793654;84;21051;-84
2022/06/19 02:58:35;;;;;;;6.90;3.85;;;;;;;23.48;65.16;99844.55;2740222;84;21566;-85
2022/06/19 03:02:36;;;;;;;4.67;3.70;;;;;;;23.46;65.43;99838.00;2779887;84;21428;-84
2022/06/19 03:06:38;;;;;;;7.78;2.90;;;;;;;23.45;65.30;99830.91;2792763;83;21039;-84
2022/06/19 03:10:39;;;;;;;6.42;2.17;;;;;;;23.47;65.34;99826.09;2827431;83;21014;-84
2022/06/19 03:14:40;;;;;;;7.45;3.90;;;;;;;23.48;65.46;99812.82;2767989;83;21062;-85
2022/06/19 03:18:42;;;;;;;8.08;3.25;;;;;;;23.47;65.49;99807.09;2817501;84;21059;-84
2022/06/19 03:22:43;;;;;;;7.05;3.00;;;;;;;23.49;65.45;99803.63;2795792;83;21003;-85
2022/06/19 03:26:45;;;;;;;3.33;2.83;;;;;;;23.52;65.54;99809.14;2787491;84;21118;-84
2022/06/19 03:30:46;;;;;;;5.45;3.05;;;;;;;23.58;65.27;99801.97;2821782;84;21031;-84
2022/06/19 03:34:47;;;;;;;7.10;3.10;;;;;;;23.63;65.09;99801.60;2740168;85;21110;-84
2022/06/19 03:38:48;;;;;;;4.05;3.10;;;;;;;23.74;65.16;99809.53;2778068;84;21975;-84
2022/06/19 03:42:49;;;;;;;2.95;2.75;;;;;;;23.83;65.04;99804.64;2787784;85;21067;-85
2022/06/19 03:46:50;;;;;;;9.05;3.33;;;;;;;23.94;64.96;99786.77;2787969;84;21027;-84
2022/06/19 03:50:52;;;;;;;5.58;3.55;;;;;;;24.02;64.53;99775.64;2764591;84;21027;-84
2022/06/19 03:54:54;;;;;;;4.60;2.95;;;;;;;24.08;64.33;99766.57;2822304;83;21098;-85
2022/06/19 03:58:57;;;;;;;5.20;3.22;;;;;;;24.19;64.27;99751.39;2803521;83;21027;-86
2022/06/19 04:02:58;;;;;;;4.30;3.02;;;;;;;24.27;63.97;99747.52;2787407;83;21068;-85
2022/06/19 04:06:59;;;;;;;4.55;2.65;;;;;;;24.44;63.99;99742.80;2816046;83;21059;-84
2022/06/19 04:11:00;;;;;;;4.75;2.92;;;;;;;24.60;63.44;99744.88;2809577;84;21075;-84
2022/06/19 04:15:03;;;;;;;3.45;2.40;;;;;;;24.77;63.29;99742.33;2767212;85;21122;-84
2022/06/19 04:19:07;;;;;;;4.70;3.05;;;;;;;24.92;62.62;99744.59;2814307;83;21043;-82
2022/06/19 04:23:09;;;;;;;3.98;2.80;;;;;;;25.13;62.49;99746.45;2788432;84;21031;-82
2022/06/19 04:27:11;;;;;;;7.22;3.15;;;;;;;25.43;61.80;99742.80;2764216;83;21125;-82
2022/06/19 04:31:12;;;;;;;5.08;2.65;;;;;;;25.73;60.32;99749.18;2801351;83;21030;-82
2022/06/19 04:35:13;;;;;;;2.58;2.05;;;;;;;26.03;59.91;99743.53;2804207;83;21099;-82
2022/06/19 04:39:14;;;;;;;5.47;2.75;;;;;;;26.29;58.82;99731.79;2819001;83;21032;-82
2022/06/19 04:43:15;;;;;;;2.58;2.05;;;;;;;26.44;57.70;99739.45;2802850;83;21015;-82
2022/06/19 04:47:16;;;;;;;5.28;2.45;;;;;;;26.73;57.32;99740.75;2783948;84;21038;-82
2022/06/19 04:51:18;;;;;;;4.72;2.40;;;;;;;26.99;56.83;99746.66;2838068;83;20991;-82
2022/06/19 04:55:19;;;;;;;3.30;2.35;;;;;;;27.15;55.87;99742.28;2812682;83;21030;-81
2022/06/19 04:59:20;;;;;;;2.62;2.08;;;;;;;27.29;55.50;99739.19;2769624;83;21020;-81
2022/06/19 05:03:24;;;;;;;3.17;2.83;;;;;;;27.61;55.34;99733.95;2805625;83;21076;-82
2022/06/19 05:07:25;;;;;;;2.67;2.42;;;;;;;27.69;54.43;99731.30;2811796;83;21038;-82
2022/06/19 05:11:31;;;;;;;5.05;2.98;;;;;;;27.88;54.03;99729.09;2804394;84;21058;-82
2022/06/19 05:15:33;;;;;;;3.62;2.70;;;;;;;28.12;54.34;99723.90;2804944;84;21055;-82
2022/06/19 05:19:35;;;;;;;2.30;1.98;;;;;;;28.36;53.71;99718.44;2768192;85;21063;-82
2022/06/19 05:23:44;;;;;;;4.72;2.30;;;;;;;28.67;52.94;99717.05;2791276;84;21018;-82
2022/06/19 05:27:45;;;;;;;5.70;2.55;;;;;;;28.85;52.85;99709.84;2830575;82;21047;-82
2022/06/19 05:31:46;;;;;;;9.25;3.00;;;;;;;28.95;52.53;99702.25;2830783;84;21011;-81
2022/06/19 05:35:47;;;;;;;3.08;2.27;;;;;;;29.11;52.10;99708.68;2824626;84;21102;-82
2022/06/19 05:39:48;;;;;;;5.15;2.27;;;;;;;29.21;51.87;99707.36;2810614;83;21059;-82
2022/06/19 05:43:51;;;;;;;3.77;2.25;;;;;;;29.46;52.32;99700.95;2804993;83;21131;-82
2022/06/19 05:47:52;;;;;;;2.55;2.35;;;;;;;29.71;51.95;99700.26;2809838;83;21011;-81
2022/06/19 05:51:53;;;;;;;6.97;2.98;;;;;;;29.91;51.09;99683.04;2755269;84;21058;-82
2022/06/19 05:55:55;;;;;;;5.40;3.22;;;;;;;30.03;50.65;99693.79;2802610;83;21007;-82
2022/06/19 05:59:56;;;;;;;4.15;2.62;;;;;;;30.17;50.56;99690.53;2822793;81;21008;-83
2022/06/19 06:03:59;;;;;;;10.60;3.10;;;;;;;30.49;49.83;99690.86;2796287;83;21070;-84
2022/06/19 06:08:00;;;;;;;3.98;2.35;;;;;;;30.60;49.07;99691.12;2812522;83;21031;-83
2022/06/19 06:12:04;;;;;;;7.22;2.65;;;;;;;30.89;49.85;99696.09;2822349;83;21098;-83
2022/06/19 06:16:07;;;;;;;2.17;1.92;;;;;;;30.94;48.09;99696.61;2786803;83;39178;-84
2022/06/19 06:20:09;;;;;;;5.75;2.40;;;;;;;31.08;47.90;99683.69;2787321;83;20996;-83
2022/06/19 06:24:13;;;;;;;2.50;2.25;;;;;;;31.12;47.79;99681.49;2789320;83;21066;-82
2022/06/19 06:28:14;;;;;;;2.95;2.20;;;;;;;31.26;47.83;99676.83;2796610;84;21070;-83
2022/06/19 06:32:15;;;;;;;6.60;2.25;;;;;;;31.32;46.67;99676.51;2801895;84;21055;-83
2022/06/19 06:36:17;;;;;;;3.75;2.45;;;;;;;31.36;46.83;99675.41;2814437;84;21089;-82
2022/06/19 06:40:19;;;;;;;3.65;2.37;;;;;;;31.58;46.48;99668.19;2784757;83;21078;-82
2022/06/19 06:44:20;;;;;;;4.17;2.10;;;;;;;31.63;46.22;99672.81;2744787;83;21071;-84
2022/06/19 06:48:21;;;;;;;4.30;2.33;;;;;;;31.94;45.91;99667.20;2803296;83;20987;-84
2022/06/19 06:52:22;;;;;;;6.45;2.40;;;;;;;32.15;45.62;99669.28;2820267;83;20999;-82
2022/06/19 06:56:24;;;;;;;2.60;2.40;;;;;;;32.32;45.71;99666.12;2776950;83;21625;-82
2022/06/19 07:00:25;;;;;;;5.12;2.67;;;;;;;32.60;45.60;99663.70;2798099;83;21011;-86
2022/06/19 07:04:27;;;;;;;3.85;2.55;;;;;;;32.60;44.89;99663.70;2751148;85;21075;-85
2022/06/19 07:08:28;;;;;;;4.05;2.33;;;;;;;32.59;44.38;99660.69;2758171;83;21493;-83
2022/06/19 07:12:29;;;;;;;3.62;2.08;;;;;;;32.56;44.33;99659.89;2776373;83;21031;-86
2022/06/19 07:16:33;;;;;;;5.85;1.98;;;;;;;32.71;44.89;99660.30;2743139;83;21071;-86
2022/06/19 07:20:34;;;;;;;6.08;2.05;;;;;;;32.86;44.70;99659.36;2781065;83;20992;-86
2022/06/19 07:24:36;;;;;;;4.92;2.42;;;;;;;33.00;44.04;99656.77;2795968;83;21055;-86
2022/06/19 07:28:39;;;;;;;3.08;2.30;;;;;;;33.09;44.22;99649.22;2786673;83;21059;-85
2022/06/19 07:32:41;;;;;;;9.20;2.90;;;;;;;33.29;43.78;99641.29;2786526;84;21026;-87
2022/06/19 07:36:43;;;;;;;2.55;2.12;;;;;;;33.40;43.85;99629.00;2713049;83;21234;-86
2022/06/19 07:40:44;;;;;;;2.95;1.80;;;;;;;33.44;43.63;99625.14;2789622;83;21010;-86
2022/06/19 07:44:45;;;;;;;6.80;2.72;;;;;;;33.51;43.71;99626.16;2787400;84;21110;-86
2022/06/19 07:53:05;;;;;;;3.50;2.17;;;;;;;33.71;42.61;99630.02;2785227;83;21046;-82
2022/06/19 07:57:07;;;;;;;2.95;2.45;;;;;;;33.74;42.73;99630.80;2786652;84;21028;-83
2022/06/19 08:01:08;;;;;;;3.15;2.08;;;;;;;33.74;42.28;99621.72;2788690;83;20979;-83
2022/06/19 08:05:11;;;;;;;89.15;16.77;;;;;;;33.84;42.13;99617.98;2756251;83;21403;-81
2022/06/19 08:09:12;;;;;;;4.62;2.85;;;;;;;33.85;42.01;99619.63;2784762;84;21071;-83
2022/06/19 08:13:13;;;;;;;6.12;1.90;;;;;;;34.11;43.07;99617.33;2786990;84;20988;-82
2022/06/19 08:17:14;;;;;;;5.55;2.00;;;;;;;34.38;42.94;99610.80;2794266;84;21014;-86
2022/06/19 08:21:15;;;;;;;3.95;1.67;;;;;;;34.67;41.41;99602.88;2756353;84;20991;-87
2022/06/19 08:25:19;;;;;;;10.48;1.80;;;;;;;34.74;41.04;99603.29;2807497;84;21064;-88
2022/06/19 08:29:20;;;;;;;1.87;1.67;;;;;;;34.66;40.95;99613.67;2788263;83;21628;-88
2022/06/19 08:33:21;;;;;;;8.50;1.85;;;;;;;34.79;41.33;99610.12;2765813;83;21043;-87
2022/06/19 08:37:22;;;;;;;2.35;2.00;;;;;;;35.07;41.33;99614.30;2800264;83;21059;-87
2022/06/19 08:41:46;;;;;;;2.17;1.55;;;;;;;35.15;40.51;99609.99;2810476;83;21703;-89
2022/06/19 08:46:25;;;;;;;14.78;3.75;;;;;;;35.25;41.04;99607.58;2803708;83;21106;-87
2022/06/19 08:50:37;;;;;;;4.15;1.60;;;;;;;35.48;40.64;99593.83;2801707;83;21104;-89
2022/06/19 08:54:53;;;;;;;9.38;2.02;;;;;;;35.35;40.60;99595.48;2780388;83;21078;-87
2022/06/19 08:59:02;;;;;;;4.53;2.05;;;;;;;35.17;40.36;99589.20;2808804;83;21130;-87
2022/06/19 09:08:37;;;;;;;5.60;2.15;;;;;;;35.28;41.65;99575.17;2799218;83;21054;-89
2022/06/19 09:13:05;;;;;;;21.75;5.22;;;;;;;35.10;40.72;99592.95;2786809;83;21042;-88
2022/06/19 09:17:14;;;;;;;10.23;2.47;;;;;;;35.22;40.90;99590.23;2802426;83;21612;-86
2022/06/19 09:21:40;;;;;;;4.15;1.10;;;;;;;35.33;40.94;99594.98;2766577;84;21062;-91
2022/06/19 09:26:10;;;;;;;11.28;2.60;;;;;;;35.33;39.82;99590.26;2736177;85;21019;-84
2022/06/19 09:30:16;;;;;;;4.15;2.15;;;;;;;35.35;40.18;99586.61;2732454;85;20998;-91
2022/06/19 09:34:31;;;;;;;5.37;2.58;;;;;;;35.39;41.29;99579.36;2706181;85;21048;-91
2022/06/19 09:38:50;;;;;;;2.65;2.37;;;;;;;35.58;40.97;99570.94;2732632;85;21103;-87
2022/06/19 09:42:59;;;;;;;9.25;3.55;;;;;;;35.57;40.44;99560.17;2733072;85;21097;-85
2022/06/19 09:47:22;;;;;;;5.03;2.37;;;;;;;35.86;41.03;99556.19;2772729;84;21114;-87
2022/06/19 09:51:29;;;;;;;10.70;2.33;;;;;;;35.92;39.25;99545.83;2768929;85;21108;-86
2022/06/19 09:55:53;;;;;;;3.98;1.92;;;;;;;35.92;39.14;99541.09;2788759;85;21076;-85
2022/06/19 10:00:12;;;;;;;4.37;1.65;;;;;;;35.88;39.26;99534.01;2799189;84;20985;-87
2022/06/19 10:04:24;;;;;;;2.95;1.98;;;;;;;36.04;39.91;99532.83;2825059;83;21615;-86
2022/06/19 10:08:43;;;;;;;9.60;2.45;;;;;;;36.09;39.49;99530.75;2768947;83;21075;-85
2022/06/19 10:12:48;;;;;;;2.67;2.00;;;;;;;36.04;39.04;99538.36;2785154;84;21075;-88
2022/06/19 10:17:01;;;;;;;3.75;2.02;;;;;;;36.10;39.90;99532.39;2788539;84;21000;-88
2022/06/19 10:22:13;;;;;;;7.62;2.02;;;;;;;36.14;39.95;99531.16;2782136;83;21611;-89
2022/06/19 10:25:56;;;;;;;2.98;1.62;;;;;;;36.25;39.89;99540.84;2776719;84;21418;-89
2022/06/19 10:30:15;;;;;;;5.00;1.67;;;;;;;36.44;41.02;99541.98;2782576;84;21053;-85
2022/06/19 10:34:23;;;;;;;4.25;1.75;;;;;;;36.24;38.72;99535.06;2804685;83;21611;-87
2022/06/19 10:38:59;;;;;;;7.67;1.98;;;;;;;36.17;38.86;99530.55;2751732;84;21054;-87
2022/06/19 10:43:33;;;;;;;9.80;2.15;;;;;;;36.18;38.70;99525.27;2807767;83;21012;-86
2022/06/19 10:48:01;;;;;;;8.33;2.57;;;;;;;35.99;39.39;99518.52;2825519;82;21070;-87
2022/06/19 10:52:32;;;;;;;10.98;2.20;;;;;;;35.86;40.19;99515.50;2784483;83;21107;-91
2022/06/19 10:56:59;;;;;;;5.90;1.72;;;;;;;36.09;39.29;99500.86;2727880;85;21040;-88
2022/06/19 11:01:07;;;;;;;4.17;1.90;;;;;;;36.04;39.16;99501.01;2664976;87;21547;-89
2022/06/19 11:05:17;;;;;;;7.35;2.20;;;;;;;36.15;38.71;99499.59;2720326;86;21065;-87
2022/06/19 11:09:32;;;;;;;8.85;1.90;;;;;;;36.23;38.97;99489.70;2718428;86;21085;-90
2022/06/19 11:14:01;;;;;;;4.80;2.20;;;;;;;36.21;38.19;99476.20;2710926;85;21653;-90
2022/06/19 11:18:25;;;;;;;3.90;2.08;;;;;;;36.13;38.30;99471.42;2719956;86;21040;-90
2022/06/19 11:22:41;;;;;;;4.25;1.75;;;;;;;36.13;39.58;99460.34;2666984;88;21072;-85
2022/06/19 11:26:45;;;;;;;10.32;3.02;;;;;;;36.06;38.27;99444.78;2723852;86;21072;-92
2022/06/19 11:30:54;;;;;;;6.47;2.37;;;;;;;36.15;38.22;99447.00;2750013;83;21090;-87
2022/06/19 11:35:07;;;;;;;5.90;2.02;;;;;;;36.26;38.04;99446.98;2763761;82;21047;-84
2022/06/19 11:39:35;;;;;;;7.00;1.87;;;;;;;36.38;37.36;99435.88;2811026;83;21074;-88
2022/06/19 11:43:36;;;;;;;12.70;2.42;;;;;;;36.52;37.98;99426.89;2752113;85;20975;-87
2022/06/19 11:47:49;;;;;;;11.97;2.35;;;;;;;36.68;37.56;99414.81;2752227;84;21092;-88
2022/06/19 11:51:50;;;;;;;7.85;2.55;;;;;;;36.76;37.59;99402.12;2772186;83;21077;-87
2022/06/19 11:56:22;;;;;;;8.75;2.15;;;;;;;36.87;36.43;99389.56;2796833;83;21047;-88
2022/06/19 12:00:35;;;;;;;8.20;2.17;;;;;;;36.91;36.69;99397.22;2795407;83;21047;-88
2022/06/19 12:04:39;;;;;;;16.77;9.00;;;;;;;37.06;36.01;99398.74;2782125;84;21027;-89
2022/06/19 12:09:03;;;;;;;3.50;1.60;;;;;;;37.08;35.24;99390.91;2777024;84;20985;-88
2022/06/19 12:13:19;;;;;;;7.92;1.72;;;;;;;37.09;35.56;99378.09;2791748;83;21084;-90
2022/06/19 12:17:28;;;;;;;4.00;1.85;;;;;;;36.92;35.00;99373.36;2801948;83;21063;-84
2022/06/19 12:21:34;;;;;;;7.05;2.10;;;;;;;36.95;36.27;99358.84;2790031;83;21074;-87
2022/06/19 12:25:53;;;;;;;7.62;2.02;;;;;;;37.12;36.45;99349.72;2714863;86;21069;-89
2022/06/19 12:29:58;;;;;;;40.10;5.25;;;;;;;37.07;35.59;99344.36;2794522;83;21004;-88
2022/06/19 12:34:30;;;;;;;4.45;1.82;;;;;;;37.10;35.61;99331.23;2787618;83;21333;-91
2022/06/19 12:38:34;;;;;;;9.23;1.95;;;;;;;37.04;35.39;99312.32;2783071;83;20975;-88
2022/06/19 12:42:49;;;;;;;4.92;2.87;;;;;;;37.06;35.95;99312.25;2782346;82;21014;-85
2022/06/19 12:47:11;;;;;;;19.95;4.90;;;;;;;37.19;35.55;99307.66;2794907;83;21035;-85
2022/06/19 12:51:32;;;;;;;11.03;2.55;;;;;;;37.08;35.00;99311.34;2803043;83;21027;-85
2022/06/19 12:56:03;;;;;;;17.20;3.42;;;;;;;37.05;34.98;99306.46;2750621;85;21029;-86
2022/06/19 13:00:22;;;;;;;4.80;2.33;;;;;;;36.93;34.52;99323.72;2779484;83;21047;-85
2022/06/19 13:04:46;;;;;;;11.08;3.15;;;;;;;37.00;35.92;99335.12;2797837;83;20983;-85
2022/06/19 13:09:17;;;;;;;8.58;3.20;;;;;;;37.21;36.09;99330.31;2769392;85;21108;-86
2022/06/19 13:13:36;;;;;;;12.85;2.85;;;;;;;37.30;35.33;99313.66;2769971;82;20994;-85
2022/06/19 13:17:57;;;;;;;11.65;4.22;;;;;;;37.46;35.71;99308.98;2810971;83;21067;-86
2022/06/19 13:22:32;;;;;;;4.78;1.98;;;;;;;37.53;35.77;99311.52;2806114;83;21023;-86
2022/06/19 13:27:10;;;;;;;7.55;3.87;;;;;;;37.50;35.23;99314.13;2797290;83;21541;-85
2022/06/19 13:31:26;;;;;;;8.50;2.15;;;;;;;37.46;34.89;99313.13;2777749;85;21060;-85
2022/06/19 13:35:36;;;;;;;6.87;2.35;;;;;;;37.39;35.40;99303.38;2783269;85;21039;-86
2022/06/19 13:40:00;;;;;;;10.05;2.83;;;;;;;37.30;36.27;99290.92;2786716;83;21030;-86
2022/06/19 13:44:40;;;;;;;14.35;3.75;;;;;;;37.33;35.93;99283.09;2830869;83;21083;-85
2022/06/19 13:48:58;;;;;;;14.93;3.12;;;;;;;37.35;35.77;99276.64;2812352;83;21040;-87
2022/06/19 13:53:23;;;;;;;10.68;2.98;;;;;;;37.46;36.20;99282.08;2803757;83;20993;-86
2022/06/19 13:57:30;;;;;;;6.50;2.87;;;;;;;37.47;35.62;99267.63;2787134;84;21060;-85
2022/06/19 14:02:14;;;;;;;8.00;2.40;;;;;;;37.41;35.94;99259.49;2786344;84;21492;-86
2022/06/19 14:06:27;;;;;;;13.95;2.58;;;;;;;37.30;36.46;99256.83;2807127;83;21000;-85
2022/06/19 14:10:43;;;;;;;7.92;3.25;;;;;;;37.21;37.05;99258.23;2788191;85;20988;-86
2022/06/19 14:14:46;;;;;;;11.80;3.72;;;;;;;37.46;37.67;99253.52;2747849;84;21082;-86
2022/06/19 14:19:28;;;;;;;5.55;2.77;;;;;;;37.50;36.50;99244.23;2819107;83;21865;-86
2022/06/19 14:23:49;;;;;;;7.47;2.47;;;;;;;37.41;35.92;99242.86;2825123;83;21021;-85
2022/06/19 14:28:17;;;;;;;6.17;2.90;;;;;;;37.41;36.55;99248.41;2811903;83;21506;-85
2022/06/19 14:32:25;;;;;;;15.98;3.00;;;;;;;37.34;36.32;99229.27;2799243;84;21046;-86
2022/06/19 14:36:30;;;;;;;8.38;2.15;;;;;;;37.22;36.18;99229.97;2801421;83;21031;-86
2022/06/19 14:40:37;;;;;;;110.88;21.90;;;;;;;37.18;37.24;99219.30;2782246;84;21000;-86
2022/06/19 14:44:58;;;;;;;7.15;1.87;;;;;;;37.14;37.46;99229.67;2762466;85;21023;-85
2022/06/19 14:49:26;;;;;;;9.30;2.15;;;;;;;37.12;36.92;99220.84;2763563;85;21012;-85
2022/06/19 14:53:54;;;;;;;6.87;2.90;;;;;;;37.22;36.78;99207.20;2707782;84;21553;-85
2022/06/19 14:57:59;;;;;;;16.37;2.65;;;;;;;37.09;36.96;99200.73;2747894;85;21052;-87
2022/06/19 15:02:02;;;;;;;10.03;2.98;;;;;;;37.13;36.38;99191.98;2752855;85;21014;-87
2022/06/19 15:06:39;;;;;;;14.30;2.45;;;;;;;37.15;36.39;99188.89;2703346;86;21083;-91
2022/06/19 15:11:03;;;;;;;11.10;3.58;;;;;;;37.24;37.79;99188.86;2709605;84;21030;-89
2022/06/19 15:15:22;;;;;;;8.90;2.10;;;;;;;37.23;37.10;99183.08;2752524;85;21051;-86
2022/06/19 15:19:43;;;;;;;9.73;2.85;;;;;;;37.09;36.81;99170.84;2759182;85;21199;-92
2022/06/19 15:23:45;;;;;;;7.17;2.47;;;;;;;37.09;36.54;99174.41;2660986;87;21058;-87
2022/06/19 15:27:46;;;;;;;23.98;6.28;;;;;;;37.10;37.41;99178.00;2750397;85;21692;-88
2022/06/19 15:31:56;;;;;;;7.42;2.15;;;;;;;37.14;37.36;99179.78;2689782;86;21005;-84
2022/06/19 15:36:07;;;;;;;6.37;2.12;;;;;;;37.11;37.08;99170.72;2720805;86;21044;-90
2022/06/19 15:40:20;;;;;;;10.08;2.58;;;;;;;37.07;36.56;99165.61;2732596;86;21071;-89
2022/06/19 15:44:29;;;;;;;11.33;2.75;;;;;;;36.96;36.80;99179.57;2785634;83;21055;-85
2022/06/19 15:48:35;;;;;;;12.47;3.37;;;;;;;36.79;36.83;99174.31;2784336;83;20980;-89
2022/06/19 15:52:40;;;;;;;6.30;2.42;;;;;;;36.77;37.63;99171.06;2777685;83;21061;-87
2022/06/19 15:56:45;;;;;;;8.55;2.75;;;;;;;36.61;37.12;99176.88;2757264;83;21007;-89
2022/06/19 16:01:12;;;;;;;7.58;1.92;;;;;;;36.43;37.33;99178.25;2786341;83;20978;-87
2022/06/19 16:05:25;;;;;;;6.50;2.20;;;;;;;36.46;38.03;99167.90;2740128;84;21602;-94
2022/06/19 16:09:32;;;;;;;6.25;2.17;;;;;;;36.42;38.55;99171.09;2781031;83;21077;-89
2022/06/19 16:13:36;;;;;;;3.10;1.75;;;;;;;36.31;38.11;99172.79;2762825;83;20997;-90
2022/06/19 16:17:37;;;;;;;;;;;;;;;36.22;38.37;99171.16;2774704;85;21020;-90
2022/06/19 16:21:50;;;;;;;4.62;2.45;;;;;;;36.01;39.05;99169.02;2793368;83;20108;-90
2022/06/19 16:25:52;;;;;;;5.05;2.17;;;;;;;35.96;39.06;99164.45;2780281;83;21042;-89
2022/06/19 16:29:59;;;;;;;13.95;2.52;;;;;;;35.85;38.78;99168.68;2802640;83;21152;-85
2022/06/19 16:34:05;;;;;;;5.87;2.20;;;;;;;35.73;39.29;99163.20;2817092;82;21098;-90
2022/06/19 16:46:52;;;;;;;6.25;1.82;;;;;;;35.33;40.31;99163.22;2695028;86;21036;-88
2022/06/19 16:51:02;;;;;;;6.67;2.67;;;;;;;35.27;40.60;99158.41;2623039;88;21074;-89
2022/06/19 16:55:15;;;;;;;10.72;2.17;;;;;;;35.09;41.40;99157.53;2629524;88;21055;-87
2022/06/19 16:59:21;;;;;;;6.90;2.42;;;;;;;34.94;41.26;99155.14;2616034;89;21725;-86
2022/06/19 17:03:54;;;;;;;10.68;2.33;;;;;;;34.75;42.44;99151.48;2629567;89;21023;-90
2022/06/19 17:12:26;;;;;;;6.23;2.20;;;;;;;34.52;42.29;99143.78;2641808;87;21071;-90
2022/06/19 17:16:28;;;;;;;6.85;2.77;;;;;;;34.38;42.85;99144.38;2661283;87;21078;-88
2022/06/19 17:20:35;;;;;;;4.72;2.42;;;;;;;34.21;42.88;99135.41;2616796;88;21079;-90
2022/06/19 17:24:53;;;;;;;7.33;2.47;;;;;;;34.14;43.36;99138.59;2625925;89;21137;-89
2022/06/19 17:28:55;;;;;;;12.25;2.60;;;;;;;34.02;44.01;99134.47;2617694;89;21091;-86
2022/06/19 17:32:58;;;;;;;6.62;1.75;;;;;;;33.87;43.96;99132.02;2627871;88;21035;-89
2022/06/19 17:37:07;;;;;;;8.40;3.02;;;;;;;33.71;44.51;99137.87;2623355;89;21083;-87
2022/06/19 17:41:13;;;;;;;6.12;3.10;;;;;;;33.62;44.54;99135.60;2663989;87;21055;-90
2022/06/19 17:45:20;;;;;;;10.55;2.95;;;;;;;33.50;45.15;99128.41;2620177;87;21431;-86
2022/06/19 17:49:42;;;;;;;8.63;3.60;;;;;;;33.35;45.40;99130.32;2676498;86;21047;-88
2022/06/19 17:53:47;;;;;;;6.37;2.52;;;;;;;33.17;45.88;99131.49;2628019;89;21035;-90
2022/06/19 17:58:10;;;;;;;8.45;2.00;;;;;;;32.98;46.20;99141.23;2630221;89;21014;-89
2022/06/19 18:02:20;;;;;;;4.45;2.12;;;;;;;32.85;46.28;99144.73;2628967;87;21452;-89
2022/06/19 18:06:34;;;;;;;26.68;5.05;;;;;;;32.61;46.46;99130.00;2659365;86;21052;-86
2022/06/19 18:10:52;;;;;;;35.25;4.35;;;;;;;32.52;47.09;99139.23;2653200;88;21122;-90
2022/06/19 18:14:58;;;;;;;6.53;2.90;;;;;;;32.37;47.17;99147.20;2695639;86;21016;-91
2022/06/19 18:19:04;;;;;;;5.47;2.77;;;;;;;32.21;47.64;99146.02;2704480;83;67129;-59
2022/06/19 18:23:06;;;;;;;4.17;2.15;;;;;;;32.01;47.74;99135.59;2754356;84;21019;-60
2022/06/19 18:27:19;;;;;;;5.20;3.00;;;;;;;31.65;48.50;99140.20;2765391;85;21002;-60
2022/06/19 18:31:23;;;;;;;9.20;3.58;;;;;;;31.65;48.50;99140.20;2778651;85;21108;-59
2022/06/19 18:35:24;;;;;;;6.97;2.70;;;;;;;31.53;48.44;99135.67;2758224;84;21029;-59
2022/06/19 18:39:36;;;;;;;4.22;2.77;;;;;;;31.38;48.77;99133.94;2742815;85;21027;-59
2022/06/19 18:43:39;;;;;;;8.48;3.27;;;;;;;31.24;49.11;99132.43;2724870;85;21124;-60
2022/06/19 18:47:42;;;;;;;3.47;2.42;;;;;;;31.04;49.30;99128.77;2770176;85;21053;-59
2022/06/19 18:51:46;;;;;;;13.62;3.60;;;;;;;30.82;49.62;99125.97;2733876;84;33480;-60
2022/06/19 18:55:48;;;;;;;6.83;3.12;;;;;;;30.72;49.88;99126.09;2685552;87;21408;-59
2022/06/19 18:59:51;;;;;;;10.60;3.83;;;;;;;30.58;49.99;99124.53;2704394;86;20996;-60
2022/06/19 19:03:52;;;;;;;7.65;2.75;;;;;;;30.43;50.41;99130.95;2667182;88;21252;-59
2022/06/19 19:07:57;;;;;;;9.53;3.90;;;;;;;30.30;50.62;99146.97;2677761;89;21095;-60
2022/06/19 19:12:00;;;;;;;7.03;2.85;;;;;;;30.17;50.72;99148.97;2655593;88;20988;-60
2022/06/19 19:16:16;;;;;;;9.10;3.22;;;;;;;30.06;51.06;99144.11;2674464;88;21008;-61
2022/06/19 19:20:27;;;;;;;6.20;2.77;;;;;;;29.93;51.35;99152.38;2696609;87;21031;-58
2022/06/19 19:24:28;;;;;;;6.55;3.30;;;;;;;29.83;51.38;99163.38;2699004;88;21517;-59
2022/06/19 19:28:34;;;;;;;5.30;3.17;;;;;;;29.71;51.65;99159.61;2711260;84;73770;-89
2022/06/19 19:32:40;;;;;;;10.48;3.70;;;;;;;29.62;51.76;99167.59;2786521;84;21110;-92
2022/06/19 19:36:44;;;;;;;9.55;3.17;;;;;;;29.52;51.96;99167.64;2873354;82;21067;-89
2022/06/19 19:40:48;;;;;;;6.85;3.62;;;;;;;29.43;52.08;99166.83;2872940;81;21006;-92
2022/06/19 19:44:58;;;;;;;16.35;3.15;;;;;;;29.36;52.38;99242.97;2787763;81;66946;-59
2022/06/19 19:49:01;;;;;;;7.47;3.72;;;;;;;29.28;52.71;99273.62;2702735;87;21064;-60
2022/06/19 19:53:05;;;;;;;5.90;3.12;;;;;;;29.28;52.96;99310.06;2678379;86;21091;-60
2022/06/19 19:57:08;;;;;;;3.77;3.17;;;;;;;29.39;52.65;99272.53;2711646;85;21072;-60